Time;durP1;ratioP1;P1;durP2;ratioP2;P2;SDS_P1;SDS_P2;PMS_P1;PMS_P2;Temp;Humidity;BMP_temperature;BMP_pressure;BME280_temperature;BME280_humidity;BME280_pressure;Samples;Min_cycle;Max_cycle;Signal;HPM_P1;HPM_P2
2024/02/16 00:00:56;;;;;;;3.70;2.10;;;;;;;11.19;100.00;100528.06;5010894;28;20209;-82
2024/02/16 00:03:23;;;;;;;4.13;2.10;;;;;;;11.18;100.00;100521.03;5013615;28;20210;-81
2024/02/16 00:05:51;;;;;;;3.53;2.00;;;;;;;11.16;100.00;100525.59;5007516;28;20207;-82
2024/02/16 00:08:18;;;;;;;3.33;2.30;;;;;;;11.13;100.00;100516.00;5007912;28;20214;-82
2024/02/16 00:10:45;;;;;;;4.63;2.73;;;;;;;11.11;100.00;100525.91;5011691;28;20227;-82
2024/02/16 00:13:11;;;;;;;2.67;1.90;;;;;;;11.11;100.00;100526.75;5011531;28;20199;-82
2024/02/16 00:15:38;;;;;;;2.13;1.90;;;;;;;11.06;100.00;100518.25;5007187;28;20226;-81
2024/02/16 00:18:06;;;;;;;4.53;2.10;;;;;;;11.03;100.00;100518.44;5005874;28;20233;-82
2024/02/16 00:20:32;;;;;;;3.13;2.00;;;;;;;11.01;100.00;100508.84;5011073;28;20707;-82
2024/02/16 00:22:59;;;;;;;3.77;1.90;;;;;;;10.97;100.00;100516.19;5004374;28;20608;-82
2024/02/16 00:25:26;;;;;;;2.47;1.70;;;;;;;10.95;100.00;100509.25;5003912;28;20233;-82
2024/02/16 00:27:53;;;;;;;3.77;1.77;;;;;;;10.93;100.00;100511.16;5009924;28;20295;-82
2024/02/16 00:30:20;;;;;;;3.10;1.50;;;;;;;10.92;100.00;100515.66;5010034;28;20231;-81
2024/02/16 00:32:47;;;;;;;3.47;1.80;;;;;;;10.93;100.00;100506.69;5005337;28;20218;-81
2024/02/16 00:35:17;;;;;;;5.70;1.43;;;;;;;10.97;100.00;100502.84;5011255;28;20297;-81
2024/02/16 00:37:45;;;;;;;3.17;1.67;;;;;;;11.00;100.00;100497.31;5009156;28;20473;-82
2024/02/16 00:40:12;;;;;;;3.40;1.67;;;;;;;11.02;100.00;100489.22;5011284;28;20645;-82
2024/02/16 00:42:39;;;;;;;3.00;1.53;;;;;;;11.08;100.00;100480.81;5009889;28;20221;-81
2024/02/16 00:45:07;;;;;;;3.07;1.57;;;;;;;11.13;100.00;100476.88;5008351;28;20208;-82
2024/02/16 00:47:33;;;;;;;5.07;1.70;;;;;;;11.18;100.00;100471.22;5014616;28;20672;-81
2024/02/16 00:50:00;;;;;;;2.97;1.40;;;;;;;11.19;100.00;100462.28;5013348;28;20241;-82
2024/02/16 00:52:27;;;;;;;4.53;1.67;;;;;;;11.20;100.00;100468.47;5011600;28;20227;-81
2024/02/16 00:54:57;;;;;;;2.93;1.33;;;;;;;11.19;100.00;100470.28;5008859;28;20203;-81
2024/02/16 00:57:24;;;;;;;2.43;1.60;;;;;;;11.18;100.00;100468.56;5005532;28;20275;-83
2024/02/16 00:59:50;;;;;;;3.00;1.30;;;;;;;11.19;100.00;100470.28;5008142;28;20222;-81
2024/02/16 01:02:17;;;;;;;2.57;1.20;;;;;;;11.18;100.00;100465.03;5012845;28;20625;-82
2024/02/16 01:04:43;;;;;;;3.20;1.50;;;;;;;11.20;100.00;100457.81;5004532;28;20207;-82
2024/02/16 01:07:10;;;;;;;1.87;1.30;;;;;;;11.19;100.00;100453.44;5008574;28;20217;-81
2024/02/16 01:09:38;;;;;;;3.47;1.73;;;;;;;11.13;100.00;100458.22;5010418;28;20216;-81
2024/02/16 01:12:04;;;;;;;3.57;2.07;;;;;;;11.12;100.00;100448.50;5015262;28;20228;-81
2024/02/16 01:14:31;;;;;;;2.10;1.30;;;;;;;11.10;100.00;100450.47;5010107;28;20219;-81
2024/02/16 01:16:57;;;;;;;3.17;1.47;;;;;;;11.08;100.00;100443.53;5008068;28;20215;-82
2024/02/16 01:19:24;;;;;;;3.97;1.70;;;;;;;11.06;100.00;100438.28;5016687;28;20215;-81
2024/02/16 01:21:52;;;;;;;1.57;1.40;;;;;;;11.04;100.00;100429.53;5011995;28;20229;-81
2024/02/16 01:24:19;;;;;;;2.47;1.50;;;;;;;11.08;100.00;100425.72;5010308;28;20268;-81
2024/02/16 01:26:47;;;;;;;3.00;1.50;;;;;;;11.08;100.00;100427.53;5011988;28;20211;-82
2024/02/16 01:29:14;;;;;;;2.03;1.43;;;;;;;11.09;100.00;100422.09;5010576;28;20776;-82
2024/02/16 01:31:40;;;;;;;2.53;1.20;;;;;;;11.08;100.00;100420.38;5014351;28;20250;-82
2024/02/16 01:34:07;;;;;;;2.27;1.47;;;;;;;11.05;100.00;100415.25;5012721;28;20648;-82
2024/02/16 01:36:33;;;;;;;2.70;1.27;;;;;;;11.09;100.00;100421.25;5014341;28;20217;-82
2024/02/16 01:39:00;;;;;;;2.20;1.20;;;;;;;11.06;100.00;100427.63;5012783;28;20221;-82
2024/02/16 01:41:26;;;;;;;2.27;1.60;;;;;;;11.05;100.00;100417.94;5013392;28;20949;-82
2024/02/16 01:43:54;;;;;;;3.83;1.47;;;;;;;11.02;100.00;100428.78;5014988;28;20210;-82
2024/02/16 01:46:22;;;;;;;3.90;1.40;;;;;;;11.00;100.00;100433.38;5013032;28;20270;-82
2024/02/16 01:48:50;;;;;;;4.07;1.40;;;;;;;11.04;99.92;100428.69;5012197;28;20676;-82
2024/02/16 01:51:16;;;;;;;2.47;1.23;;;;;;;10.99;99.81;100431.66;5018557;28;20236;-82
2024/02/16 01:53:43;;;;;;;2.70;1.77;;;;;;;11.02;99.06;100418.13;5013867;28;20696;-82
2024/02/16 01:56:09;;;;;;;2.43;1.40;;;;;;;11.04;99.15;100420.69;5011277;28;20210;-81
2024/02/16 01:58:36;;;;;;;2.03;1.20;;;;;;;11.07;98.84;100413.34;5012498;28;20203;-82
2024/02/16 02:01:04;;;;;;;1.80;1.30;;;;;;;11.08;98.94;100411.53;5011796;28;20225;-80
2024/02/16 02:03:31;;;;;;;2.97;1.50;;;;;;;11.10;98.70;100406.97;5018311;28;20210;-82
2024/02/16 02:05:57;;;;;;;1.83;1.23;;;;;;;11.13;97.95;100406.72;5015709;28;20216;-82
2024/02/16 02:08:26;;;;;;;3.87;1.40;;;;;;;11.16;97.72;100411.00;5009967;28;20210;-82
2024/02/16 02:10:52;;;;;;;1.93;1.10;;;;;;;11.17;97.31;100410.88;5014015;28;20232;-81
2024/02/16 02:13:21;;;;;;;2.87;1.13;;;;;;;11.20;96.95;100410.69;5017716;28;20201;-81
2024/02/16 02:15:48;;;;;;;3.10;1.43;;;;;;;11.21;96.78;100408.88;5012315;28;20233;-81
2024/02/16 02:18:16;;;;;;;5.33;2.53;;;;;;;11.20;96.48;100407.16;5012462;28;20221;-81
2024/02/16 02:20:43;;;;;;;2.87;1.40;;;;;;;11.13;96.89;100407.56;5016027;28;20207;-83
2024/02/16 02:23:11;;;;;;;3.17;1.27;;;;;;;11.11;97.14;100408.63;5016286;28;20210;-82
2024/02/16 02:25:37;;;;;;;3.63;1.60;;;;;;;11.06;96.89;100411.63;5014080;28;20213;-81
2024/02/16 02:28:04;;;;;;;3.43;1.30;;;;;;;11.09;96.47;100416.75;5015543;28;20235;-82
2024/02/16 02:30:30;;;;;;;3.10;1.20;;;;;;;11.07;97.00;100420.50;5014386;28;20231;-82
2024/02/16 02:32:57;;;;;;;3.00;1.50;;;;;;;11.06;97.06;100416.13;5015661;28;20224;-82
2024/02/16 02:35:23;;;;;;;1.43;1.10;;;;;;;11.08;96.24;100406.22;5016527;28;20203;-82
2024/02/16 02:37:50;;;;;;;1.47;1.17;;;;;;;11.08;96.23;100415.06;5009631;28;20199;-82
2024/02/16 02:40:18;;;;;;;1.77;1.03;;;;;;;11.10;96.20;100404.28;5016008;28;20224;-82
2024/02/16 02:42:45;;;;;;;2.83;1.10;;;;;;;11.12;95.86;100400.53;5011752;28;20244;-81
2024/02/16 02:45:11;;;;;;;3.67;1.60;;;;;;;11.13;95.51;100394.25;5011039;28;20209;-82
2024/02/16 02:47:38;;;;;;;2.97;1.40;;;;;;;11.13;95.65;100383.59;5013874;28;20204;-82
2024/02/16 02:50:05;;;;;;;1.50;1.37;;;;;;;11.18;95.49;100393.06;5012049;28;20203;-82
2024/02/16 02:52:32;;;;;;;1.37;1.10;;;;;;;11.21;95.24;100379.53;5010980;28;20230;-81
2024/02/16 02:54:58;;;;;;;3.37;1.17;;;;;;;11.23;94.99;100382.97;5010727;28;20221;-82
2024/02/16 02:57:26;;;;;;;1.53;1.13;;;;;;;11.22;94.90;100386.59;5016151;28;20211;-81
2024/02/16 02:59:52;;;;;;;2.83;1.23;;;;;;;11.22;94.12;100390.09;5015891;28;20206;-81
2024/02/16 03:02:19;;;;;;;2.20;1.40;;;;;;;11.24;94.17;100384.66;5016718;28;20214;-81
2024/02/16 03:04:45;;;;;;;2.07;1.30;;;;;;;11.27;94.16;100389.78;5012753;28;20213;-82
2024/02/16 03:07:12;;;;;;;4.20;1.30;;;;;;;11.24;94.46;100374.00;5014892;28;20212;-82
2024/02/16 03:09:38;;;;;;;2.77;1.20;;;;;;;11.27;94.02;100381.78;5016557;28;20212;-82
2024/02/16 03:12:05;;;;;;;3.53;1.20;;;;;;;11.28;94.22;100378.16;5013932;28;20229;-82
2024/02/16 03:14:33;;;;;;;3.23;1.13;;;;;;;11.27;94.06;100371.97;5014833;28;20217;-82
2024/02/16 03:17:03;;;;;;;2.87;1.30;;;;;;;11.24;94.20;100366.84;5016653;28;20324;-82
2024/02/16 03:19:30;;;;;;;2.90;1.10;;;;;;;11.22;94.71;100373.25;5015902;28;20216;-82
2024/02/16 03:21:56;;;;;;;3.47;1.40;;;;;;;11.17;94.73;100376.22;5004127;28;20226;-80
2024/02/16 03:24:23;;;;;;;2.70;1.23;;;;;;;11.11;94.77;100380.16;5009035;28;20401;-80
2024/02/16 03:26:49;;;;;;;5.17;1.67;;;;;;;11.09;95.10;100376.78;5013449;28;20464;-80
2024/02/16 03:29:16;;;;;;;1.93;1.27;;;;;;;11.08;95.07;100377.75;5001504;28;20649;-80
2024/02/16 03:31:44;;;;;;;3.53;1.20;;;;;;;11.06;94.85;100382.31;5011519;28;20712;-79
2024/02/16 03:34:10;;;;;;;2.43;1.00;;;;;;;11.05;94.90;100377.09;5010539;28;20262;-80
2024/02/16 03:36:36;;;;;;;5.10;1.40;;;;;;;11.05;94.63;100374.44;5007437;28;20210;-79
2024/02/16 03:39:03;;;;;;;2.73;1.30;;;;;;;11.04;94.54;100368.25;5007485;28;20220;-79
2024/02/16 03:41:30;;;;;;;2.63;1.43;;;;;;;11.06;94.47;100369.00;5012929;28;20242;-79
2024/02/16 03:43:58;;;;;;;2.57;1.30;;;;;;;11.09;93.58;100371.47;5007937;28;20208;-79
2024/02/16 03:46:24;;;;;;;2.17;1.43;;;;;;;11.08;94.08;100366.22;5011412;28;20212;-79
2024/02/16 03:48:52;;;;;;;2.13;1.30;;;;;;;11.10;93.76;100364.31;5008185;28;20218;-81
2024/02/16 03:51:19;;;;;;;4.17;1.50;;;;;;;11.10;93.74;100364.31;5008467;28;20242;-80
2024/02/16 03:53:45;;;;;;;2.00;1.10;;;;;;;11.16;92.69;100361.19;5009603;28;20214;-80
2024/02/16 03:56:12;;;;;;;4.23;1.30;;;;;;;11.16;92.81;100368.34;5011778;28;20209;-79
2024/02/16 03:58:39;;;;;;;1.97;1.20;;;;;;;11.17;92.87;100370.03;5012920;28;20209;-80
2024/02/16 04:01:07;;;;;;;4.47;1.53;;;;;;;11.20;92.83;100369.84;5005927;28;20219;-81
2024/02/16 04:03:34;;;;;;;1.77;1.20;;;;;;;11.24;92.72;100369.53;5008253;28;20209;-80
2024/02/16 04:06:04;;;;;;;3.70;1.30;;;;;;;11.29;91.89;100363.84;5010480;28;20217;-80
2024/02/16 04:08:30;;;;;;;4.30;1.30;;;;;;;11.29;91.88;100364.69;5010027;28;20489;-79
2024/02/16 04:10:57;;;;;;;1.83;1.13;;;;;;;11.28;91.90;100367.50;5005751;28;20232;-80
2024/02/16 04:13:24;;;;;;;2.10;0.97;;;;;;;11.30;91.79;100362.88;5011062;28;20202;-80
2024/02/16 04:15:50;;;;;;;2.13;1.30;;;;;;;11.34;91.37;100362.56;5009260;28;20213;-79
2024/02/16 04:18:18;;;;;;;2.17;1.10;;;;;;;11.33;91.34;100368.00;5010315;28;20770;-80
2024/02/16 04:20:45;;;;;;;2.33;1.10;;;;;;;11.33;91.64;100360.84;5008328;28;20268;-80
2024/02/16 04:23:12;;;;;;;2.30;1.30;;;;;;;11.32;91.43;100367.16;5013761;28;20726;-80
2024/02/16 04:25:39;;;;;;;1.80;1.40;;;;;;;11.32;91.55;100368.97;5009109;28;20209;-81
2024/02/16 04:28:05;;;;;;;2.03;1.03;;;;;;;11.33;91.66;100368.00;5005402;28;20834;-80
2024/02/16 04:30:31;;;;;;;1.57;1.00;;;;;;;11.37;91.05;100364.16;5013790;28;20214;-80
2024/02/16 04:32:58;;;;;;;3.03;1.23;;;;;;;11.32;91.19;100361.81;5008719;28;20289;-81
2024/02/16 04:35:24;;;;;;;2.23;1.30;;;;;;;11.32;91.11;100368.97;5013908;28;20214;-80
2024/02/16 04:37:51;;;;;;;2.23;1.20;;;;;;;11.29;91.09;100366.50;5007663;28;20233;-80
2024/02/16 04:40:18;;;;;;;1.93;1.10;;;;;;;11.36;90.77;100359.78;5012475;28;20580;-80
2024/02/16 04:42:45;;;;;;;1.93;1.20;;;;;;;11.36;91.29;100355.31;5015394;28;20218;-80
2024/02/16 04:45:13;;;;;;;1.83;1.27;;;;;;;11.34;91.04;100351.91;5013993;28;20207;-80
2024/02/16 04:47:39;;;;;;;2.50;1.30;;;;;;;11.36;90.88;100354.47;5011009;28;20205;-80
2024/02/16 04:50:09;;;;;;;1.90;1.27;;;;;;;11.36;90.74;100349.13;5011011;28;20639;-80
2024/02/16 04:52:37;;;;;;;2.80;1.30;;;;;;;11.37;91.11;100345.50;5014226;28;20320;-80
2024/02/16 04:55:05;;;;;;;3.73;1.23;;;;;;;11.32;91.06;100345.81;5011295;28;20235;-81
2024/02/16 04:57:33;;;;;;;2.23;1.30;;;;;;;11.31;91.00;100349.44;5011520;28;20249;-81
2024/02/16 05:00:00;;;;;;;3.03;1.30;;;;;;;11.29;91.26;100351.38;5005766;28;20208;-80
2024/02/16 05:02:26;;;;;;;3.67;1.30;;;;;;;11.29;91.16;100354.03;5007354;28;20230;-80
2024/02/16 05:04:52;;;;;;;3.53;1.23;;;;;;;11.33;91.07;100354.66;5008204;28;20203;-79
2024/02/16 05:07:19;;;;;;;2.47;1.37;;;;;;;11.39;90.07;100354.25;5007743;28;20212;-80
2024/02/16 05:09:46;;;;;;;2.30;1.70;;;;;;;11.41;90.08;100352.31;5007104;28;20214;-80
2024/02/16 05:12:12;;;;;;;1.67;1.40;;;;;;;11.44;89.80;100341.44;5008460;28;20235;-80
2024/02/16 05:14:40;;;;;;;2.50;1.27;;;;;;;11.44;89.99;100352.97;5012308;28;20215;-80
2024/02/16 05:17:07;;;;;;;2.97;1.50;;;;;;;11.44;89.57;100350.31;5010684;28;20202;-80
2024/02/16 05:19:36;;;;;;;2.37;1.30;;;;;;;11.44;89.62;100350.31;5011397;28;20220;-80
2024/02/16 05:22:03;;;;;;;3.00;1.10;;;;;;;11.46;89.51;100343.00;5007951;28;20229;-79
2024/02/16 05:24:30;;;;;;;2.77;1.50;;;;;;;11.50;89.02;100346.31;5012984;28;20208;-79
2024/02/16 05:26:56;;;;;;;1.40;1.10;;;;;;;11.52;88.87;100348.88;5008648;28;20206;-80
2024/02/16 05:29:23;;;;;;;2.93;1.50;;;;;;;11.54;88.91;100353.16;5007663;28;20862;-80
2024/02/16 05:31:53;;;;;;;4.07;1.10;;;;;;;11.55;88.20;100340.66;5009842;28;20677;-79
2024/02/16 05:34:20;;;;;;;2.83;1.60;;;;;;;11.57;88.14;100344.06;5005464;28;20198;-81
2024/02/16 05:36:47;;;;;;;2.67;1.00;;;;;;;11.62;87.44;100340.13;5009010;28;20218;-80
2024/02/16 05:39:26;;;;;;;1.93;1.30;;;;;;;11.67;87.21;100329.09;5008892;28;20402;-80
2024/02/16 05:41:53;;;;;;;2.30;1.40;;;;;;;11.73;86.38;100337.50;5006096;28;20231;-80
2024/02/16 05:44:19;;;;;;;2.93;1.60;;;;;;;11.74;86.63;100336.56;5007608;28;20216;-81
2024/02/16 05:46:46;;;;;;;1.97;1.40;;;;;;;11.75;86.57;100332.91;5005558;28;20261;-80
2024/02/16 05:49:14;;;;;;;2.87;1.20;;;;;;;11.76;86.40;100337.31;5004837;28;20210;-80
2024/02/16 05:51:41;;;;;;;4.20;1.03;;;;;;;11.80;86.10;100336.13;5003892;28;20238;-80
2024/02/16 05:54:08;;;;;;;3.03;1.43;;;;;;;11.81;85.69;100334.31;5006307;28;20198;-79
2024/02/16 05:56:36;;;;;;;3.27;1.80;;;;;;;11.77;86.04;100323.03;5002905;28;20262;-80
2024/02/16 05:59:03;;;;;;;3.37;1.60;;;;;;;11.81;85.70;100324.50;5006533;28;20213;-79
2024/02/16 06:01:31;;;;;;;3.47;1.70;;;;;;;11.77;85.74;100320.34;5004575;28;20273;-79
2024/02/16 06:03:58;;;;;;;2.30;1.20;;;;;;;11.80;85.32;100336.13;5006803;28;20207;-79
2024/02/16 06:06:26;;;;;;;3.43;1.50;;;;;;;11.82;85.33;100326.19;5008228;28;20626;-79
2024/02/16 06:08:52;;;;;;;2.40;1.50;;;;;;;11.84;84.75;100328.75;5008544;28;20216;-79
2024/02/16 06:11:19;;;;;;;2.80;1.40;;;;;;;11.84;85.04;100336.75;5008745;28;20248;-80
2024/02/16 06:13:45;;;;;;;2.77;1.30;;;;;;;11.85;84.80;100332.25;5006684;28;20217;-80
2024/02/16 06:16:11;;;;;;;4.07;1.43;;;;;;;11.80;85.09;100333.47;5006843;28;20209;-80
2024/02/16 06:18:38;;;;;;;4.20;1.27;;;;;;;11.88;84.59;100335.56;5012198;28;20218;-80
2024/02/16 06:21:05;;;;;;;2.23;1.27;;;;;;;11.90;84.63;100340.78;5010788;28;20290;-80
2024/02/16 06:23:33;;;;;;;1.77;1.20;;;;;;;11.89;84.66;100339.94;5011502;28;20585;-80
2024/02/16 06:25:59;;;;;;;4.00;1.27;;;;;;;11.89;84.52;100341.75;5015961;28;20294;-81
2024/02/16 06:28:26;;;;;;;2.40;1.60;;;;;;;11.92;84.78;100336.19;5012279;28;20207;-81
2024/02/16 06:30:52;;;;;;;2.10;1.20;;;;;;;11.95;84.42;100325.28;5009327;28;20209;-80
2024/02/16 06:33:19;;;;;;;3.13;1.10;;;;;;;11.97;83.77;100326.88;5014306;28;20238;-80
2024/02/16 06:35:46;;;;;;;3.03;1.30;;;;;;;11.94;84.43;100332.44;5007380;28;20220;-80
2024/02/16 06:38:13;;;;;;;1.80;1.07;;;;;;;11.91;84.66;100332.66;5010301;28;20244;-81
2024/02/16 06:40:41;;;;;;;2.43;1.20;;;;;;;11.92;84.62;100336.19;5013985;28;20225;-80
2024/02/16 06:43:08;;;;;;;1.97;1.40;;;;;;;11.90;84.70;100328.28;5015699;28;20228;-80
2024/02/16 06:45:34;;;;;;;2.73;1.37;;;;;;;11.90;84.97;100333.63;5012363;28;20663;-80
2024/02/16 06:48:01;;;;;;;2.30;1.20;;;;;;;11.90;84.65;100330.13;5011944;28;20297;-80
2024/02/16 06:50:27;;;;;;;1.97;1.00;;;;;;;11.83;85.28;100343.03;5012526;28;20272;-80
2024/02/16 06:52:55;;;;;;;2.57;1.50;;;;;;;11.87;85.42;100339.19;5013434;28;20344;-80
2024/02/16 06:55:21;;;;;;;4.00;1.30;;;;;;;11.85;85.32;100340.25;5020189;28;20217;-80
2024/02/16 06:57:50;;;;;;;2.47;1.37;;;;;;;11.81;85.29;100337.84;5019713;28;20660;-80
2024/02/16 07:00:19;;;;;;;2.97;1.77;;;;;;;11.77;85.84;100349.69;5014923;28;20207;-80
2024/02/16 07:02:46;;;;;;;1.30;1.20;;;;;;;11.75;86.26;100356.06;5013924;28;20219;-80
2024/02/16 07:05:13;;;;;;;2.60;1.50;;;;;;;11.72;86.38;100351.81;5011895;28;20220;-80
2024/02/16 07:07:39;;;;;;;2.97;1.33;;;;;;;11.68;86.82;100358.31;5012968;28;20297;-80
2024/02/16 07:10:13;;;;;;;2.03;1.83;;;;;;;11.63;86.92;100355.16;5010567;28;20219;-80
2024/02/16 07:12:40;;;;;;;3.03;1.30;;;;;;;11.61;87.68;100358.91;5006329;28;20231;-80
2024/02/16 07:15:08;;;;;;;2.40;1.50;;;;;;;11.59;87.35;100345.66;5009776;28;20230;-81
2024/02/16 07:17:36;;;;;;;2.90;1.50;;;;;;;11.65;86.97;100342.53;5013666;28;20218;-80
2024/02/16 07:20:04;;;;;;;4.50;1.50;;;;;;;11.75;86.01;100340.91;5013570;28;20220;-80
2024/02/16 07:22:31;;;;;;;2.33;1.27;;;;;;;11.82;84.96;100344.84;5015257;28;20363;-80
2024/02/16 07:24:58;;;;;;;1.80;1.20;;;;;;;11.80;85.75;100357.50;5011849;28;20226;-80
2024/02/16 07:27:25;;;;;;;1.87;1.20;;;;;;;11.82;85.79;100352.88;5009083;28;20210;-80
2024/02/16 07:29:51;;;;;;;3.40;1.67;;;;;;;11.85;85.66;100359.78;5006825;28;20210;-81
2024/02/16 07:32:19;;;;;;;2.73;1.50;;;;;;;11.87;85.61;100362.34;5010325;28;20225;-81
2024/02/16 07:34:47;;;;;;;2.90;1.80;;;;;;;11.91;85.36;100366.50;5006367;28;20202;-80
2024/02/16 07:37:15;;;;;;;4.60;1.50;;;;;;;11.94;84.65;100371.63;5006786;28;20219;-80
2024/02/16 07:39:41;;;;;;;4.40;1.33;;;;;;;11.99;84.07;100366.81;5006530;28;20214;-80
2024/02/16 07:42:09;;;;;;;2.30;1.20;;;;;;;12.02;83.83;100366.56;5003936;28;20825;-80
2024/02/16 07:44:36;;;;;;;3.47;2.20;;;;;;;12.06;84.01;100366.22;5012158;28;20302;-80
2024/02/16 07:47:03;;;;;;;2.50;1.47;;;;;;;12.04;83.97;100349.47;5009478;28;20203;-80
2024/02/16 07:49:30;;;;;;;1.70;1.37;;;;;;;12.05;84.50;100347.66;5007794;28;20207;-80
2024/02/16 07:51:57;;;;;;;2.00;1.33;;;;;;;12.09;84.10;100357.16;5007951;28;20230;-80
2024/02/16 07:54:24;;;;;;;3.33;1.57;;;;;;;12.08;84.24;100356.28;5013881;28;20213;-80
2024/02/16 07:56:50;;;;;;;5.30;1.60;;;;;;;12.06;83.78;100352.88;5004791;28;20203;-80
2024/02/16 07:59:18;;;;;;;1.73;1.23;;;;;;;12.10;84.11;100353.50;5015502;28;20207;-80
2024/02/16 08:01:45;;;;;;;1.40;1.20;;;;;;;12.11;83.27;100357.88;5004375;28;20233;-80
2024/02/16 08:04:11;;;;;;;3.00;1.43;;;;;;;12.12;83.55;100360.44;5011416;28;20212;-80
2024/02/16 08:06:39;;;;;;;3.50;1.53;;;;;;;12.18;84.00;100366.31;5009398;28;20198;-80
2024/02/16 08:09:06;;;;;;;2.70;1.83;;;;;;;12.20;83.90;100367.00;5006242;28;20210;-80
2024/02/16 08:11:32;;;;;;;4.90;2.47;;;;;;;12.18;83.90;100365.31;5009428;28;20234;-81
2024/02/16 08:14:00;;;;;;;2.03;1.10;;;;;;;12.21;84.41;100355.38;5008486;28;20223;-80
2024/02/16 08:16:27;;;;;;;2.87;1.30;;;;;;;12.24;83.88;100361.34;5009251;28;20203;-80
2024/02/16 08:18:53;;;;;;;2.03;1.20;;;;;;;12.29;83.85;100361.00;5006832;28;20605;-80
2024/02/16 08:21:20;;;;;;;3.47;1.47;;;;;;;12.38;83.49;100365.63;5009847;28;20218;-81
2024/02/16 08:23:48;;;;;;;3.10;1.33;;;;;;;12.43;83.54;100360.81;5011379;28;20718;-80
2024/02/16 08:26:15;;;;;;;2.27;1.50;;;;;;;12.50;82.98;100354.91;5006733;28;20199;-81
2024/02/16 08:28:44;;;;;;;4.43;2.00;;;;;;;12.59;82.52;100350.66;5014677;28;20313;-80
2024/02/16 08:31:10;;;;;;;2.47;1.37;;;;;;;12.66;81.57;100348.38;5008603;28;20229;-81
2024/02/16 08:33:38;;;;;;;3.13;1.37;;;;;;;12.76;81.04;100338.66;5009910;28;20227;-83
2024/02/16 08:36:08;;;;;;;4.60;1.40;;;;;;;12.88;80.39;100350.25;5004687;28;20208;-80
2024/02/16 08:38:33;;;;;;;2.63;1.60;;;;;;;12.92;80.53;100354.38;5010482;28;20210;-81
2024/02/16 08:41:01;;;;;;;2.97;1.17;;;;;;;12.95;79.61;100355.00;5009359;28;20253;-81
2024/02/16 08:43:27;;;;;;;2.83;1.30;;;;;;;12.98;79.76;100354.75;5012779;28;20215;-81
2024/02/16 08:45:54;;;;;;;3.23;1.50;;;;;;;13.01;79.69;100353.66;5007006;28;20214;-80
2024/02/16 08:48:20;;;;;;;2.13;1.37;;;;;;;13.01;80.07;100361.69;5011845;28;20230;-80
2024/02/16 08:50:47;;;;;;;4.23;1.40;;;;;;;13.00;79.71;100352.81;5012047;28;20203;-81
2024/02/16 08:53:14;;;;;;;2.33;1.27;;;;;;;13.02;79.49;100356.22;5004896;28;20329;-80
2024/02/16 08:55:40;;;;;;;1.70;1.20;;;;;;;13.04;80.06;100353.44;5007783;28;20217;-81
2024/02/16 08:58:09;;;;;;;1.90;1.43;;;;;;;13.06;80.24;100351.50;5014954;28;20206;-81
2024/02/16 09:00:36;;;;;;;1.67;1.30;;;;;;;13.03;80.16;100357.06;5007289;28;20252;-80
2024/02/16 09:03:03;;;;;;;2.60;1.30;;;;;;;13.06;80.31;100368.38;5003089;28;20223;-80
2024/02/16 09:05:29;;;;;;;3.77;1.93;;;;;;;13.15;80.92;100378.38;5005427;28;20270;-81
2024/02/16 09:07:56;;;;;;;3.57;1.50;;;;;;;13.19;80.87;100376.31;5009293;28;20207;-80
2024/02/16 09:10:23;;;;;;;2.13;1.67;;;;;;;13.27;80.66;100373.03;5006672;28;20212;-80
2024/02/16 09:12:51;;;;;;;1.87;1.50;;;;;;;13.27;80.94;100381.06;5004612;28;20228;-80
2024/02/16 09:15:19;;;;;;;2.70;1.53;;;;;;;13.31;80.05;100378.03;5004583;28;20206;-81
2024/02/16 09:17:46;;;;;;;2.07;1.30;;;;;;;13.35;80.67;100374.16;5007430;28;20215;-82
2024/02/16 09:20:12;;;;;;;2.33;1.30;;;;;;;13.42;80.90;100370.03;5006827;28;20210;-81
2024/02/16 09:22:41;;;;;;;2.07;1.27;;;;;;;13.43;80.54;100377.06;5015892;28;20594;-80
2024/02/16 09:25:08;;;;;;;5.00;1.27;;;;;;;13.49;80.56;100365.00;5005817;28;20210;-80
2024/02/16 09:27:39;;;;;;;1.80;1.40;;;;;;;13.56;80.59;100376.94;5007374;28;20208;-81
2024/02/16 09:30:06;;;;;;;2.83;1.50;;;;;;;13.55;80.22;100369.88;5005884;28;20256;-80
2024/02/16 09:32:34;;;;;;;9.17;1.90;;;;;;;13.56;80.14;100374.25;5002455;28;20237;-81
2024/02/16 09:35:01;;;;;;;2.10;1.40;;;;;;;13.57;79.82;100373.28;5005260;28;20681;-81
2024/02/16 09:37:27;;;;;;;2.57;1.10;;;;;;;13.63;79.88;100364.75;5011716;28;20215;-81
2024/02/16 09:39:54;;;;;;;3.90;1.33;;;;;;;13.66;79.68;100377.88;5009549;28;20210;-81
2024/02/16 09:42:22;;;;;;;2.60;1.50;;;;;;;13.66;79.22;100390.41;5001806;28;20232;-81
2024/02/16 09:44:48;;;;;;;2.57;1.33;;;;;;;13.73;79.79;100381.78;5011915;28;20210;-80
2024/02/16 09:47:19;;;;;;;3.47;1.80;;;;;;;13.80;79.41;100391.00;5002890;28;20198;-81
2024/02/16 09:49:48;;;;;;;2.30;1.10;;;;;;;13.85;79.37;100396.84;5010197;28;20226;-81
2024/02/16 09:52:15;;;;;;;4.87;1.83;;;;;;;13.89;79.27;100402.81;5009583;28;20594;-81
2024/02/16 09:54:41;;;;;;;2.93;1.60;;;;;;;13.93;78.70;100406.09;5013291;28;20237;-81
2024/02/16 09:57:08;;;;;;;2.33;1.20;;;;;;;13.95;77.80;100404.16;5012063;28;20207;-81
2024/02/16 09:59:35;;;;;;;2.33;1.43;;;;;;;14.00;77.40;100401.91;5018574;28;20232;-80
2024/02/16 10:02:02;;;;;;;2.30;1.30;;;;;;;14.03;77.32;100401.69;5012081;28;20297;-81
2024/02/16 10:04:29;;;;;;;1.53;1.23;;;;;;;14.08;77.43;100402.16;5011307;28;20212;-82
2024/02/16 10:06:58;;;;;;;2.80;1.10;;;;;;;14.12;77.60;100406.28;5016769;28;20238;-81
2024/02/16 10:09:25;;;;;;;2.90;1.70;;;;;;;14.18;77.41;100400.41;5006605;28;20238;-81
2024/02/16 10:11:52;;;;;;;4.10;1.60;;;;;;;14.17;77.25;100398.72;5006604;28;20244;-81
2024/02/16 10:14:19;;;;;;;3.00;1.63;;;;;;;14.21;77.67;100408.22;5012181;28;20297;-81
2024/02/16 10:16:46;;;;;;;2.57;1.60;;;;;;;14.19;77.61;100407.47;5008113;28;20977;-81
2024/02/16 10:19:14;;;;;;;3.03;2.00;;;;;;;14.21;78.59;100410.88;5012552;28;20195;-81
2024/02/16 10:21:40;;;;;;;4.20;2.10;;;;;;;14.22;78.53;100415.25;5020438;28;20258;-81
2024/02/16 10:24:09;;;;;;;3.87;1.87;;;;;;;14.22;78.42;100424.16;5010664;28;20201;-81
2024/02/16 10:26:37;;;;;;;3.37;2.00;;;;;;;14.27;77.94;100415.75;5010863;28;20210;-81
2024/02/16 10:29:04;;;;;;;2.10;1.47;;;;;;;14.27;77.61;100415.75;5008879;28;20211;-80
2024/02/16 10:31:33;;;;;;;2.77;1.43;;;;;;;14.28;77.51;100412.09;5018116;28;20237;-81
2024/02/16 10:34:01;;;;;;;1.97;1.67;;;;;;;14.32;77.09;100418.06;5008334;28;20720;-85
2024/02/16 10:36:29;;;;;;;3.63;1.63;;;;;;;14.32;77.69;100413.53;5018081;28;20215;-81
2024/02/16 10:38:56;;;;;;;2.67;1.33;;;;;;;14.41;76.34;100410.13;5006115;28;20245;-81
2024/02/16 10:41:29;;;;;;;2.77;1.37;;;;;;;14.40;76.89;100420.94;5014688;28;20586;-80
2024/02/16 10:43:56;;;;;;;2.87;1.43;;;;;;;14.44;76.27;100415.22;5016240;28;20202;-81
2024/02/16 10:46:24;;;;;;;4.23;2.00;;;;;;;14.48;75.99;100418.50;5016926;28;20260;-82
2024/02/16 10:48:50;;;;;;;4.03;1.90;;;;;;;14.49;76.36;100423.75;5004387;28;20208;-81
2024/02/16 10:51:20;;;;;;;4.90;1.90;;;;;;;14.50;76.57;100424.59;5005661;28;20228;-81
2024/02/16 10:53:48;;;;;;;2.90;1.90;;;;;;;14.51;77.04;100423.63;5010153;28;20262;-81
2024/02/16 10:56:14;;;;;;;3.70;1.57;;;;;;;14.57;77.15;100423.09;5007549;28;20203;-81
2024/02/16 10:58:42;;;;;;;3.33;1.90;;;;;;;14.58;77.62;100420.28;5014705;28;20213;-82
2024/02/16 11:01:11;;;;;;;3.43;1.27;;;;;;;14.62;76.90;100414.69;5007012;28;20660;-81
2024/02/16 11:03:39;;;;;;;3.43;2.10;;;;;;;14.63;76.54;100416.38;5011118;28;20698;-81
2024/02/16 11:06:16;;;;;;;4.20;1.53;;;;;;;14.72;76.61;100415.59;5012372;28;20214;-81
2024/02/16 11:08:42;;;;;;;2.10;1.43;;;;;;;14.73;76.31;100411.94;5010041;28;20199;-81
2024/02/16 11:11:11;;;;;;;6.97;2.10;;;;;;;14.74;75.99;100419.84;5018068;28;20215;-81
2024/02/16 11:13:38;;;;;;;2.80;1.40;;;;;;;14.81;75.18;100409.47;5006466;28;20236;-81
2024/02/16 11:16:08;;;;;;;2.53;1.50;;;;;;;14.83;75.32;100410.19;5012203;28;20636;-81
2024/02/16 11:18:38;;;;;;;3.13;1.50;;;;;;;14.86;75.43;100401.88;5009372;28;20312;-81
2024/02/16 11:21:07;;;;;;;2.70;1.50;;;;;;;14.92;75.18;100409.41;5009700;28;20209;-81
2024/02/16 11:23:36;;;;;;;2.00;1.67;;;;;;;15.03;74.07;100406.66;5005015;28;20221;-81